createdAt,value
2023-03-27T00:00:45.010Z,100919.94
2023-03-27T00:03:18.199Z,100932.63
2023-03-27T00:05:48.927Z,100932.50
2023-03-27T00:08:19.821Z,100944.84
2023-03-27T00:11:10.350Z,100942.06
2023-03-27T00:13:49.571Z,100949.25
2023-03-27T00:16:30.020Z,100944.03
2023-03-27T00:19:01.262Z,100952.31
2023-03-27T00:21:31.518Z,100948.41
2023-03-27T00:24:19.890Z,100951.53
2023-03-27T00:27:09.161Z,100959.47
2023-03-27T00:29:40.188Z,100968.63
2023-03-27T00:32:10.539Z,100972.19
2023-03-27T00:37:27.141Z,100976.91
2023-03-27T00:40:21.982Z,100987.97
2023-03-27T00:42:54.498Z,100988.78
2023-03-27T00:45:29.055Z,100990.75
2023-03-27T00:48:04.040Z,100999.19
2023-03-27T00:50:54.189Z,101011.09
2023-03-27T00:53:28.825Z,101019.06
2023-03-27T00:56:18.914Z,101023.47
2023-03-27T00:58:56.348Z,101024.25
2023-03-27T01:01:30.513Z,101038.94
2023-03-27T01:04:07.212Z,101035.81
2023-03-27T01:09:24.529Z,101042.84
2023-03-27T01:12:04.808Z,101049.16
2023-03-27T01:15:14.377Z,101043.63
2023-03-27T01:18:05.148Z,101046.75
2023-03-27T01:21:19.025Z,101054.72
2023-03-27T01:24:07.888Z,101054.72
2023-03-27T01:27:00.552Z,101058.94
2023-03-27T01:30:04.335Z,101059.78
2023-03-27T01:32:44.387Z,101064.16
2023-03-27T01:35:52.324Z,101064.97
2023-03-27T01:38:32.148Z,101071.66
2023-03-27T01:41:12.400Z,101076.84
2023-03-27T01:44:07.853Z,101083.22
2023-03-27T01:47:12.643Z,101083.53
2023-03-27T01:50:09.686Z,101084.69
2023-03-27T01:53:23.789Z,101081.59
2023-03-27T01:56:03.466Z,101083.53
2023-03-27T01:58:50.505Z,101083.53
2023-03-27T02:04:29.851Z,101087.91
2023-03-27T02:07:08.619Z,101086.97
2023-03-27T02:09:47.531Z,101082.22
2023-03-27T02:12:26.866Z,101094.44
2023-03-27T02:15:22.421Z,101093.44
2023-03-27T02:17:55.223Z,101087.28
2023-03-27T02:20:26.737Z,101094.13
2023-03-27T02:23:16.662Z,101089.91
2023-03-27T02:25:48.717Z,101086.00
2023-03-27T02:28:48.856Z,101082.09
2023-03-27T02:31:43.900Z,101085.38
2023-03-27T02:34:52.884Z,101088.94
2023-03-27T02:41:17.996Z,101100.50
2023-03-27T02:50:43.103Z,101091.88
2023-03-27T02:53:36.482Z,101092.69
2023-03-27T02:56:09.925Z,101086.81
2023-03-27T02:58:59.964Z,101079.66
2023-03-27T03:04:48.742Z,101081.78
2023-03-27T03:07:37.380Z,101085.38
2023-03-27T03:10:14.471Z,101075.91
2023-03-27T03:13:04.042Z,101079.50
2023-03-27T03:15:53.192Z,101086.31
2023-03-27T03:21:27.895Z,101062.25
2023-03-27T03:23:59.579Z,101065.00
2023-03-27T03:26:32.629Z,101074.13
2023-03-27T03:29:04.004Z,101063.88
2023-03-27T03:31:47.071Z,101076.56
2023-03-27T03:34:21.535Z,101073.81
2023-03-27T03:36:52.876Z,101075.44
2023-03-27T03:39:27.863Z,101071.50
2023-03-27T03:44:44.551Z,101072.00
2023-03-27T03:47:33.851Z,101065.31
2023-03-27T03:50:04.550Z,101062.53
2023-03-27T03:52:35.865Z,101062.53
2023-03-27T03:55:07.221Z,101063.03
2023-03-27T03:57:39.197Z,101056.69
2023-03-27T04:00:28.919Z,101049.19
2023-03-27T04:03:01.414Z,101048.03
2023-03-27T04:05:34.774Z,101052.44
2023-03-27T04:08:24.115Z,101041.03
2023-03-27T04:11:09.467Z,101041.84
2023-03-27T04:13:53.775Z,101037.94
2023-03-27T04:16:37.275Z,101040.38
2023-03-27T04:19:21.307Z,101032.06
2023-03-27T04:21:59.349Z,101027.34
2023-03-27T04:27:23.970Z,101019.53
2023-03-27T04:30:18.455Z,101024.72
2023-03-27T04:33:07.873Z,101014.00
2023-03-27T04:36:06.461Z,101006.00
2023-03-27T04:38:57.651Z,101000.63
2023-03-27T04:41:32.881Z,100985.63
2023-03-27T04:44:04.802Z,100988.56
2023-03-27T04:46:37.141Z,100986.59
2023-03-27T04:49:12.491Z,100991.00
2023-03-27T04:52:00.764Z,100980.41
2023-03-27T04:54:50.276Z,100968.50
2023-03-27T05:00:27.018Z,100956.63
2023-03-27T05:03:16.420Z,100958.56
2023-03-27T05:06:00.886Z,100956.63
2023-03-27T05:08:31.230Z,100940.00
2023-03-27T05:11:01.994Z,100942.75
2023-03-27T05:13:50.811Z,100935.75
2023-03-27T05:22:29.260Z,100911.28
2023-03-27T05:25:11.202Z,100909.81
2023-03-27T05:28:01.652Z,100895.94
2023-03-27T05:30:52.790Z,100903.13
2023-03-27T05:36:34.000Z,100884.72
2023-03-27T05:39:07.904Z,100878.69
2023-03-27T05:41:47.212Z,100881.47
2023-03-27T05:44:38.799Z,100870.88
2023-03-27T05:47:29.669Z,100868.59
2023-03-27T05:50:02.308Z,100866.97
2023-03-27T05:52:37.430Z,100863.03
2023-03-27T05:55:12.150Z,100854.38
2023-03-27T05:57:49.613Z,100845.75
2023-03-27T06:00:28.526Z,100845.75
2023-03-27T06:03:03.446Z,100835.47
2023-03-27T06:08:41.878Z,100827.63
2023-03-27T06:11:32.774Z,100826.16
2023-03-27T06:14:23.339Z,100813.59
2023-03-27T06:17:16.483Z,100808.84
2023-03-27T06:20:14.962Z,100805.41
2023-03-27T06:22:59.804Z,100804.94
2023-03-27T06:25:49.300Z,100797.59
2023-03-27T06:28:21.838Z,100787.66
2023-03-27T06:34:12.960Z,100771.81
2023-03-27T06:36:50.501Z,100781.44
2023-03-27T06:39:21.662Z,100771.97
2023-03-27T06:42:11.211Z,100764.47
2023-03-27T06:48:21.282Z,100763.78
2023-03-27T06:50:57.708Z,100752.69
2023-03-27T06:53:32.669Z,100750.72
2023-03-27T06:56:25.032Z,100746.13
2023-03-27T06:59:16.654Z,100738.66
2023-03-27T07:01:51.747Z,100740.25
2023-03-27T07:10:33.890Z,100723.75
2023-03-27T07:13:05.061Z,100721.47
2023-03-27T07:15:36.738Z,100717.88
2023-03-27T07:18:10.119Z,100713.16
2023-03-27T07:23:28.758Z,100702.84
2023-03-27T07:26:18.961Z,100697.78
2023-03-27T07:29:28.118Z,100692.59
2023-03-27T07:32:04.303Z,100695.84
2023-03-27T07:38:07.292Z,100683.56
2023-03-27T07:40:57.604Z,100689.59
2023-03-27T07:43:32.450Z,100679.31
2023-03-27T07:46:08.605Z,100680.59
2023-03-27T07:49:00.415Z,100669.19
2023-03-27T07:51:49.833Z,100671.59
2023-03-27T07:57:28.061Z,100660.50
2023-03-27T08:00:06.627Z,100662.63
2023-03-27T08:03:12.180Z,100654.50
2023-03-27T08:08:36.303Z,100654.31
2023-03-27T08:11:22.951Z,100641.59
2023-03-27T08:13:59.561Z,100656.59
2023-03-27T08:16:32.228Z,100657.09
2023-03-27T08:19:22.263Z,100648.78
2023-03-27T08:21:57.871Z,100646.78
2023-03-27T08:24:29.625Z,100641.72
2023-03-27T08:27:19.392Z,100642.19
2023-03-27T08:30:08.937Z,100638.47
2023-03-27T08:32:44.750Z,100631.47
2023-03-27T08:35:16.629Z,100628.31
2023-03-27T08:37:47.977Z,100627.19
2023-03-27T08:40:41.321Z,100623.56
2023-03-27T08:43:30.814Z,100624.03
2023-03-27T08:46:27.050Z,100612.84
2023-03-27T08:49:23.161Z,100614.00
2023-03-27T08:52:30.061Z,100619.19
2023-03-27T08:55:10.249Z,100613.19
2023-03-27T08:57:48.086Z,100604.53
2023-03-27T09:00:32.070Z,100611.69
2023-03-27T09:03:22.465Z,100610.06
2023-03-27T09:06:07.196Z,100608.09
2023-03-27T09:09:07.673Z,100597.00
2023-03-27T09:12:13.600Z,100598.19
2023-03-27T09:14:57.656Z,100596.69
2023-03-27T09:20:58.330Z,100601.41
2023-03-27T09:23:50.128Z,100601.41
2023-03-27T09:29:45.325Z,100598.41
2023-03-27T09:32:46.136Z,100601.66
2023-03-27T09:35:18.226Z,100600.50
2023-03-27T09:38:12.373Z,100596.22
2023-03-27T09:43:52.334Z,100597.50
2023-03-27T09:46:26.298Z,100589.50
2023-03-27T09:49:14.254Z,100595.53
2023-03-27T09:52:05.759Z,100590.34
2023-03-27T09:55:25.846Z,100597.16
2023-03-27T09:58:18.098Z,100592.75
2023-03-27T10:01:11.563Z,100593.13
2023-03-27T10:03:55.521Z,100594.72
2023-03-27T10:06:45.570Z,100598.31
2023-03-27T10:09:27.052Z,100595.06
2023-03-27T10:12:19.748Z,100594.25
2023-03-27T10:14:54.897Z,100598.50
2023-03-27T10:17:54.600Z,100601.66
2023-03-27T10:20:25.747Z,100601.66
2023-03-27T10:23:05.644Z,100603.59
2023-03-27T10:25:43.420Z,100594.47
2023-03-27T10:28:39.822Z,100593.31
2023-03-27T10:31:33.757Z,100592.50
2023-03-27T10:34:58.285Z,100602.44
2023-03-27T10:37:49.816Z,100605.22
2023-03-27T10:40:38.686Z,100603.75
2023-03-27T10:43:43.073Z,100608.47
2023-03-27T10:46:23.373Z,100610.44
2023-03-27T10:49:11.655Z,100612.84
2023-03-27T10:52:23.539Z,100606.50
2023-03-27T10:55:39.158Z,100617.13
2023-03-27T10:58:52.664Z,100622.69
2023-03-27T11:01:34.780Z,100634.91
2023-03-27T11:04:27.111Z,100640.94
2023-03-27T11:07:11.293Z,100643.25
2023-03-27T11:09:56.094Z,100651.56
2023-03-27T11:12:35.554Z,100633.66
2023-03-27T11:15:18.303Z,100648.66
2023-03-27T11:18:03.480Z,100650.63
2023-03-27T11:21:07.822Z,100653.41
2023-03-27T11:23:54.540Z,100661.72
2023-03-27T11:26:56.496Z,100664.84
2023-03-27T11:29:38.329Z,100668.75
2023-03-27T11:32:31.012Z,100669.56
2023-03-27T11:35:14.182Z,100677.41
2023-03-27T11:38:17.435Z,100686.56
2023-03-27T11:40:55.019Z,100690.81
2023-03-27T11:43:25.784Z,100685.28
2023-03-27T11:45:56.203Z,100685.97
2023-03-27T11:48:54.335Z,100688.75
2023-03-27T11:52:06.582Z,100692.94
2023-03-27T11:55:11.278Z,100685.97
2023-03-27T11:58:10.886Z,100702.44
2023-03-27T12:01:18.203Z,100694.81
2023-03-27T12:04:10.231Z,100701.16
2023-03-27T12:07:04.888Z,100691.22
2023-03-27T12:10:03.519Z,100690.06
2023-03-27T12:13:09.239Z,100704.59
2023-03-27T12:16:04.264Z,100703.81
2023-03-27T12:19:08.048Z,100702.97
2023-03-27T12:21:57.434Z,100699.06
2023-03-27T12:24:57.422Z,100702.19
2023-03-27T12:28:05.307Z,100710.84
2023-03-27T12:30:53.579Z,100710.84
2023-03-27T12:33:34.098Z,100721.94
2023-03-27T12:36:28.290Z,100711.53
2023-03-27T12:39:03.170Z,100715.91
2023-03-27T12:41:39.561Z,100715.44
2023-03-27T12:44:34.837Z,100717.38
2023-03-27T12:47:29.224Z,100726.53
2023-03-27T12:50:36.996Z,100739.25
2023-03-27T12:53:09.824Z,100737.16
2023-03-27T12:55:44.881Z,100734.38
2023-03-27T12:58:38.917Z,100744.19
2023-03-27T13:01:52.431Z,100752.97
2023-03-27T13:05:08.682Z,100766.00
2023-03-27T13:08:13.472Z,100755.28
2023-03-27T13:11:25.993Z,100758.03
2023-03-27T13:14:42.267Z,100774.69
2023-03-27T13:20:43.348Z,100776.13
2023-03-27T13:23:45.175Z,100780.88
2023-03-27T13:26:45.658Z,100782.38
2023-03-27T13:29:28.471Z,100786.75
2023-03-27T13:32:10.306Z,100794.63
2023-03-27T13:35:33.418Z,100789.06
2023-03-27T13:38:06.673Z,100796.09
2023-03-27T13:40:58.382Z,100801.63
2023-03-27T13:43:40.091Z,100803.25
2023-03-27T13:46:23.728Z,100805.91
2023-03-27T14:19:18.168Z,100858.59
2023-03-27T14:22:07.427Z,100866.25
2023-03-27T14:24:58.328Z,100880.28
2023-03-27T14:57:52.827Z,100916.22
2023-03-27T15:00:34.753Z,100912.78
2023-03-27T15:03:10.924Z,100915.88
2023-03-27T15:05:58.296Z,100921.09
2023-03-27T15:08:43.464Z,100911.47
2023-03-27T15:11:27.906Z,100913.94
2023-03-27T15:14:19.580Z,100915.06
2023-03-27T15:17:11.658Z,100911.63
2023-03-27T15:19:49.583Z,100921.88
2023-03-27T15:22:36.021Z,100921.88
2023-03-27T15:25:21.972Z,100923.84
2023-03-27T22:57:47.066Z,100950.38
2023-03-27T23:00:18.192Z,100956.56
2023-03-27T23:02:48.274Z,100959.66
2023-03-27T23:06:26.690Z,100965.03
2023-03-27T23:08:56.953Z,100969.41
2023-03-27T23:11:28.361Z,100968.75
2023-03-27T23:13:58.077Z,100970.41
2023-03-27T23:16:28.371Z,100967.47
2023-03-27T23:18:58.695Z,100976.09
2023-03-27T23:21:28.915Z,100968.63
2023-03-27T23:24:00.530Z,100966.34
2023-03-27T23:26:30.945Z,100975.44
2023-03-27T23:29:01.295Z,100972.03
2023-03-27T23:31:31.799Z,100978.34
2023-03-27T23:34:02.092Z,100982.75
2023-03-27T23:36:33.101Z,100991.53
2023-03-27T23:41:48.572Z,100999.69
2023-03-27T23:44:18.789Z,100998.56
2023-03-27T23:46:49.124Z,101009.63
2023-03-27T23:49:19.411Z,101010.75
2023-03-27T23:51:49.893Z,101025.75
2023-03-27T23:54:38.890Z,101035.66
2023-03-27T23:57:09.398Z,101025.75
2023-03-27T23:59:58.051Z,101030.13
